TSO5143 UHHH-UEEE
Flight info
| Callsign | TSO5143 |
|---|---|
| Flight time | N/A |
| Altitude | 34000 |
| Route | IVADA4R IVADA N742 FA B148 OGLIS OGLIS6C |
| Aircraft | A321/M-SDE3FGHIRWY/LB1 |
Departure
| Time | 2026-05-06 18:13 |
|---|---|
| Airport | Khabarovsk Novy Airport (UHHH) |
Arrival
| Time | N/A |
|---|---|
| Airport | Platon Oyunsky Yakutsk International Airport (UEEE) |
| Time | Latitude | Longitude | Altitude | Speed | Heading |
|---|---|---|---|---|---|
| 2026-05-06 17:44 | 48.52458 | 135.17122 | 264 ft | 0 kts | 313° |
| 2026-05-06 17:59 | 48.52452 | 135.17131 | 264 ft | 2 kts | 313° |
| 2026-05-06 18:00 | 48.52442 | 135.17148 | 264 ft | 2 kts | 317° |
| 2026-05-06 18:00 | 48.52430 | 135.17160 | 264 ft | 2 kts | 332° |
| 2026-05-06 18:00 | 48.52416 | 135.17169 | 263 ft | 2 kts | 345° |
| 2026-05-06 18:00 | 48.52401 | 135.17172 | 263 ft | 2 kts | 357° |
| 2026-05-06 18:01 | 48.52387 | 135.17171 | 262 ft | 2 kts | 10° |
| 2026-05-06 18:01 | 48.52372 | 135.17166 | 261 ft | 2 kts | 22° |
| 2026-05-06 18:01 | 48.52359 | 135.17156 | 261 ft | 2 kts | 35° |
| 2026-05-06 18:01 | 48.52352 | 135.17148 | 260 ft | 1 kts | 42° |
| 2026-05-06 18:02 | 48.52349 | 135.17142 | 260 ft | 0 kts | 43° |
| 2026-05-06 18:05 | 48.52358 | 135.17154 | 261 ft | 3 kts | 41° |
| 2026-05-06 18:05 | 48.52388 | 135.17195 | 263 ft | 7 kts | 41° |
| 2026-05-06 18:05 | 48.52436 | 135.17261 | 266 ft | 11 kts | 43° |
| 2026-05-06 18:06 | 48.52498 | 135.17360 | 269 ft | 14 kts | 68° |
| 2026-05-06 18:06 | 48.52445 | 135.17528 | 264 ft | 23 kts | 131° |
| 2026-05-06 18:06 | 48.52344 | 135.17696 | 256 ft | 0 kts | 133° |
| 2026-05-06 18:06 | 48.52314 | 135.17744 | 255 ft | 11 kts | 132° |
| 2026-05-06 18:07 | 48.52309 | 135.17882 | 252 ft | 18 kts | 33° |
| 2026-05-06 18:07 | 48.52422 | 135.18028 | 251 ft | 24 kts | 42° |
| 2026-05-06 18:07 | 48.52562 | 135.18221 | 249 ft | 29 kts | 42° |
| 2026-05-06 18:07 | 48.52725 | 135.18448 | 250 ft | 33 kts | 42° |
| 2026-05-06 18:08 | 48.52904 | 135.18697 | 252 ft | 36 kts | 43° |
| 2026-05-06 18:08 | 48.53092 | 135.18962 | 253 ft | 38 kts | 43° |
| 2026-05-06 18:08 | 48.53304 | 135.19240 | 251 ft | 41 kts | 40° |
| 2026-05-06 18:08 | 48.53527 | 135.19545 | 245 ft | 45 kts | 43° |
| 2026-05-06 18:09 | 48.53774 | 135.19884 | 238 ft | 49 kts | 41° |
| 2026-05-06 18:09 | 48.53927 | 135.20103 | 234 ft | 26 kts | 65° |
| 2026-05-06 18:09 | 48.53848 | 135.20338 | 236 ft | 28 kts | 128° |
| 2026-05-06 18:09 | 48.53892 | 135.20605 | 237 ft | 31 kts | 41° |
| 2026-05-06 18:10 | 48.54058 | 135.20833 | 242 ft | 24 kts | 42° |
| 2026-05-06 18:10 | 48.54083 | 135.20821 | 243 ft | 0 kts | 178° |
| 2026-05-06 18:10 | 48.54062 | 135.20805 | 242 ft | 3 kts | 231° |
| 2026-05-06 18:10 | 48.54030 | 135.20763 | 241 ft | 0 kts | 222° |
| 2026-05-06 18:11 | 48.54025 | 135.20758 | 241 ft | 2 kts | 222° |
| 2026-05-06 18:11 | 48.54015 | 135.20744 | 240 ft | 3 kts | 222° |
| 2026-05-06 18:11 | 48.54007 | 135.20734 | 240 ft | 0 kts | 223° |
| 2026-05-06 18:12 | 48.54007 | 135.20732 | 240 ft | 0 kts | 223° |
| 2026-05-06 18:12 | 48.53982 | 135.20699 | 239 ft | 13 kts | 223° |
| 2026-05-06 18:12 | 48.53778 | 135.20412 | 237 ft | 77 kts | 223° |
| 2026-05-06 18:13 | 48.53207 | 135.19626 | 242 ft | 142 kts | 221° |
| 2026-05-06 18:13 | 48.52350 | 135.18484 | 376 ft | 182 kts | 221° |
| 2026-05-06 18:13 | 48.51397 | 135.17192 | 984 ft | 190 kts | 222° |
| 2026-05-06 18:13 | 48.50390 | 135.15834 | 1641 ft | 197 kts | 222° |
| 2026-05-06 18:14 | 48.49389 | 135.14461 | 2304 ft | 201 kts | 223° |
| 2026-05-06 18:14 | 48.48364 | 135.12972 | 2895 ft | 209 kts | 224° |
| 2026-05-06 18:14 | 48.47319 | 135.11443 | 3613 ft | 209 kts | 224° |
| 2026-05-06 18:14 | 48.46277 | 135.09926 | 4175 ft | 218 kts | 224° |
| 2026-05-06 18:15 | 48.45141 | 135.08276 | 4511 ft | 240 kts | 224° |
| 2026-05-06 18:15 | 48.43881 | 135.06453 | 4935 ft | 258 kts | 224° |
| 2026-05-06 18:15 | 48.42731 | 135.04335 | 5475 ft | 269 kts | 245° |
| 2026-05-06 18:15 | 48.42379 | 135.01621 | 6218 ft | 271 kts | 275° |
| 2026-05-06 18:16 | 48.42962 | 134.98982 | 6958 ft | 273 kts | 304° |
| 2026-05-06 18:16 | 48.44350 | 134.97082 | 7646 ft | 275 kts | 332° |
| 2026-05-06 18:16 | 48.46064 | 134.95808 | 8353 ft | 278 kts | 334° |
| 2026-05-06 18:16 | 48.47795 | 134.94524 | 9023 ft | 282 kts | 333° |
| 2026-05-06 18:17 | 48.49558 | 134.93190 | 9704 ft | 285 kts | 333° |
| 2026-05-06 18:17 | 48.51326 | 134.91835 | 10356 ft | 288 kts | 333° |
| 2026-05-06 18:17 | 48.53108 | 134.90457 | 10724 ft | 301 kts | 333° |
| 2026-05-06 18:17 | 48.55030 | 134.88966 | 11021 ft | 317 kts | 333° |
| 2026-05-06 18:18 | 48.57010 | 134.87424 | 11305 ft | 332 kts | 333° |
| 2026-05-06 18:18 | 48.59099 | 134.85794 | 11584 ft | 347 kts | 333° |
| 2026-05-06 18:18 | 48.61280 | 134.84088 | 11876 ft | 361 kts | 333° |
| 2026-05-06 18:18 | 48.63520 | 134.82335 | 12396 ft | 367 kts | 333° |
| 2026-05-06 18:19 | 48.65787 | 134.80559 | 13032 ft | 369 kts | 333° |
| 2026-05-06 18:19 | 48.68062 | 134.78773 | 13637 ft | 372 kts | 333° |
| 2026-05-06 18:19 | 48.70354 | 134.76973 | 14213 ft | 375 kts | 333° |
| 2026-05-06 18:19 | 48.72675 | 134.75146 | 14778 ft | 379 kts | 333° |
| 2026-05-06 18:20 | 48.74992 | 134.73322 | 15326 ft | 382 kts | 333° |
| 2026-05-06 18:20 | 48.77327 | 134.71481 | 15861 ft | 385 kts | 333° |
| 2026-05-06 18:20 | 48.79687 | 134.69618 | 16387 ft | 388 kts | 333° |
| 2026-05-06 18:20 | 48.82084 | 134.67725 | 16906 ft | 391 kts | 333° |
| 2026-05-06 18:21 | 48.84504 | 134.65810 | 17415 ft | 394 kts | 333° |
| 2026-05-06 18:21 | 48.86916 | 134.63901 | 17907 ft | 397 kts | 333° |
| 2026-05-06 18:21 | 48.89363 | 134.61961 | 18391 ft | 400 kts | 333° |
| 2026-05-06 18:21 | 48.91801 | 134.60025 | 18860 ft | 403 kts | 333° |
| 2026-05-06 18:22 | 48.94287 | 134.58049 | 19322 ft | 405 kts | 333° |
| 2026-05-06 18:22 | 48.96780 | 134.56064 | 19772 ft | 408 kts | 333° |
| 2026-05-06 18:22 | 48.99263 | 134.54086 | 20207 ft | 411 kts | 333° |
| 2026-05-06 18:22 | 49.01799 | 134.52061 | 20638 ft | 414 kts | 333° |
| 2026-05-06 18:23 | 49.04349 | 134.50027 | 21059 ft | 416 kts | 333° |
| 2026-05-06 18:23 | 49.06948 | 134.48114 | 21462 ft | 419 kts | 337° |
| 2026-05-06 18:23 | 49.09646 | 134.46524 | 21862 ft | 421 kts | 341° |
| 2026-05-06 18:23 | 49.12431 | 134.45271 | 22251 ft | 424 kts | 346° |
| 2026-05-06 18:24 | 49.15285 | 134.44188 | 22633 ft | 426 kts | 347° |
| 2026-05-06 18:24 | 49.18149 | 134.43143 | 23000 ft | 429 kts | 347° |
| 2026-05-06 18:24 | 49.21028 | 134.42094 | 23360 ft | 431 kts | 347° |
| 2026-05-06 18:24 | 49.23955 | 134.41020 | 23713 ft | 433 kts | 347° |
| 2026-05-06 18:25 | 49.26863 | 134.39946 | 24052 ft | 436 kts | 347° |
| 2026-05-06 18:25 | 49.29819 | 134.38847 | 24384 ft | 438 kts | 347° |
| 2026-05-06 18:25 | 49.32769 | 134.37747 | 24706 ft | 440 kts | 347° |
| 2026-05-06 18:25 | 49.35725 | 134.36642 | 25014 ft | 442 kts | 347° |
| 2026-05-06 18:26 | 49.38673 | 134.35539 | 25313 ft | 444 kts | 347° |
| 2026-05-06 18:26 | 49.41616 | 134.34436 | 25605 ft | 446 kts | 346° |
| 2026-05-06 18:26 | 49.44611 | 134.33311 | 25894 ft | 448 kts | 346° |
| 2026-05-06 18:26 | 49.47626 | 134.32178 | 26170 ft | 450 kts | 346° |
| 2026-05-06 18:27 | 49.50596 | 134.31061 | 26432 ft | 452 kts | 346° |
| 2026-05-06 18:27 | 49.53531 | 134.29950 | 26685 ft | 454 kts | 346° |
| 2026-05-06 18:27 | 49.56648 | 134.28764 | 26980 ft | 454 kts | 346° |
| 2026-05-06 18:27 | 49.59689 | 134.27605 | 27339 ft | 453 kts | 346° |
| 2026-05-06 18:28 | 49.62737 | 134.26440 | 27704 ft | 452 kts | 346° |
| 2026-05-06 18:28 | 49.89072 | 134.16449 | 28111 ft | 450 kts | 346° |
| 2026-05-06 18:28 | 50.69056 | 133.84206 | 28528 ft | 447 kts | 348° |
| 2026-05-06 18:28 | 50.72098 | 133.83197 | 28787 ft | 448 kts | 348° |
| 2026-05-06 18:29 | 50.75113 | 133.82163 | 29018 ft | 449 kts | 347° |
| 2026-05-06 18:29 | 50.78083 | 133.81085 | 29290 ft | 449 kts | 347° |
| 2026-05-06 18:29 | 50.81043 | 133.79964 | 29588 ft | 449 kts | 346° |
| 2026-05-06 18:29 | 50.84027 | 133.78801 | 29890 ft | 448 kts | 346° |
| 2026-05-06 18:30 | 50.86937 | 133.77649 | 30166 ft | 447 kts | 346° |
| 2026-05-06 18:30 | 50.89883 | 133.76471 | 30434 ft | 447 kts | 346° |
| 2026-05-06 18:30 | 50.92878 | 133.75267 | 30703 ft | 446 kts | 346° |
| 2026-05-06 18:30 | 51.88228 | 133.36183 | 31178 ft | 441 kts | 348° |
| 2026-05-06 18:31 | 51.91172 | 133.35065 | 31525 ft | 439 kts | 346° |
| 2026-05-06 18:31 | 51.94077 | 133.33772 | 31617 ft | 442 kts | 344° |
| 2026-05-06 18:31 | 51.97046 | 133.32423 | 31745 ft | 444 kts | 344° |
| 2026-05-06 18:31 | 51.99983 | 133.31114 | 31946 ft | 445 kts | 345° |
| 2026-05-06 18:32 | 52.02965 | 133.29816 | 32186 ft | 444 kts | 345° |
| 2026-05-06 18:32 | 52.05913 | 133.28551 | 32393 ft | 444 kts | 345° |
| 2026-05-06 18:32 | 52.08815 | 133.27315 | 32552 ft | 445 kts | 345° |
| 2026-05-06 18:32 | 52.11580 | 133.26141 | 32694 ft | 445 kts | 345° |
| 2026-05-06 18:33 | 52.14502 | 133.24901 | 32845 ft | 446 kts | 345° |
| 2026-05-06 18:33 | 52.17475 | 133.23637 | 32999 ft | 447 kts | 345° |
| 2026-05-06 18:33 | 52.20453 | 133.22391 | 33149 ft | 447 kts | 346° |
| 2026-05-06 18:33 | 52.74202 | 133.01042 | 33417 ft | 446 kts | 346° |
| 2026-05-06 18:34 | 53.72607 | 132.62930 | 33924 ft | 439 kts | 348° |
| 2026-05-06 18:34 | 53.75568 | 132.61909 | 33891 ft | 443 kts | 349° |
| 2026-05-06 18:34 | 53.81657 | 132.59901 | 33986 ft | 449 kts | 349° |
| 2026-05-06 18:35 | 53.87640 | 132.57863 | 34003 ft | 451 kts | 349° |
| 2026-05-06 18:35 | 53.93818 | 132.55710 | 34008 ft | 452 kts | 348° |
| 2026-05-06 18:36 | 53.99783 | 132.53609 | 34010 ft | 452 kts | 348° |
| 2026-05-06 18:36 | 54.02635 | 132.52600 | 34011 ft | 452 kts | 348° |
| 2026-05-06 18:37 | 54.05602 | 132.51549 | 34011 ft | 452 kts | 348° |
| 2026-05-06 18:37 | 54.11161 | 132.49574 | 34012 ft | 452 kts | 348° |
| 2026-05-06 18:38 | 54.14537 | 132.48372 | 34012 ft | 452 kts | 348° |
| 2026-05-06 18:38 | 54.20562 | 132.46220 | 34012 ft | 452 kts | 348° |